Time;durP1;ratioP1;P1;durP2;ratioP2;P2;SDS_P1;SDS_P2;PMS_P1;PMS_P2;Temp;Humidity;BMP_temperature;BMP_pressure;BME280_temperature;BME280_humidity;BME280_pressure;Samples;Min_cycle;Max_cycle;Signal;HPM_P1;HPM_P2
2022/06/30 00:00:48;;;;;;;3.97;2.28;;;20.00;99.90;;;;;;5061147;28;20232;-74
2022/06/30 00:03:33;;;;;;;2.60;2.40;;;19.90;99.90;;;;;;5069473;28;20217;-75
2022/06/30 00:06:18;;;;;;;5.03;2.03;;;19.90;99.90;;;;;;5061723;28;20225;-72
2022/06/30 00:09:03;;;;;;;3.67;2.20;;;19.90;99.90;;;;;;5066431;28;20327;-74
2022/06/30 00:11:47;;;;;;;2.95;2.65;;;19.80;99.90;;;;;;5066581;28;20283;-73
2022/06/30 00:14:31;;;;;;;1.95;1.73;;;19.80;99.90;;;;;;5063972;28;20218;-74
2022/06/30 00:17:16;;;;;;;2.15;1.95;;;19.80;99.90;;;;;;5060633;28;20208;-74
2022/06/30 00:20:01;;;;;;;2.33;2.13;;;19.70;99.90;;;;;;5068854;28;20225;-75
2022/06/30 00:22:45;;;;;;;3.63;2.30;;;19.70;99.90;;;;;;5059044;28;20249;-74
2022/06/30 00:25:30;;;;;;;2.20;1.90;;;19.70;99.90;;;;;;5070114;28;20185;-73
2022/06/30 00:28:15;;;;;;;4.05;1.90;;;19.70;99.90;;;;;;5064702;28;20220;-74
2022/06/30 00:30:59;;;;;;;5.45;2.00;;;19.60;99.90;;;;;;5080184;28;20189;-74
2022/06/30 00:33:44;;;;;;;2.00;1.90;;;19.60;99.90;;;;;;5066559;28;20225;-74
2022/06/30 00:36:29;;;;;;;3.40;1.85;;;19.60;99.90;;;;;;5066806;28;20637;-74
2022/06/30 00:39:13;;;;;;;2.42;2.00;;;19.60;99.90;;;;;;5067176;28;20229;-73
2022/06/30 00:41:58;;;;;;;2.20;2.10;;;19.60;99.90;;;;;;5069646;28;20335;-74
2022/06/30 00:44:42;;;;;;;4.05;2.00;;;19.60;99.90;;;;;;5066841;28;20732;-74
2022/06/30 00:47:27;;;;;;;4.05;2.20;;;19.50;99.90;;;;;;5069366;28;20181;-73
2022/06/30 00:50:11;;;;;;;2.97;2.00;;;19.50;99.90;;;;;;5063084;28;20186;-74
2022/06/30 00:52:57;;;;;;;2.05;1.92;;;19.50;99.90;;;;;;5066654;28;20241;-73
2022/06/30 00:55:44;;;;;;;2.78;1.95;;;19.50;99.90;;;;;;5069521;28;20209;-74
2022/06/30 00:58:31;;;;;;;6.30;2.10;;;19.50;99.90;;;;;;5068610;28;20240;-74
2022/06/30 01:01:17;;;;;;;3.95;2.03;;;19.50;99.90;;;;;;5062580;28;20190;-74
2022/06/30 01:04:02;;;;;;;5.75;1.90;;;19.40;99.90;;;;;;5064858;28;20351;-74
2022/06/30 01:06:47;;;;;;;2.13;1.92;;;19.40;99.90;;;;;;5065313;28;20194;-75
2022/06/30 01:12:43;;;;;;;5.25;2.00;;;19.30;99.90;;;;;;5057871;28;20228;-73
2022/06/30 01:15:27;;;;;;;2.88;1.85;;;19.30;99.90;;;;;;5065492;28;20252;-75
2022/06/30 01:18:11;;;;;;;3.20;1.63;;;19.30;99.90;;;;;;5081123;28;20655;-74
2022/06/30 01:20:56;;;;;;;2.25;2.05;;;19.20;99.90;;;;;;5058454;28;20247;-73
2022/06/30 01:23:40;;;;;;;2.42;1.88;;;19.20;99.90;;;;;;5068015;28;20225;-74
2022/06/30 01:26:27;;;;;;;3.45;2.22;;;19.20;99.90;;;;;;5055346;28;20267;-73
2022/06/30 01:29:11;;;;;;;4.80;1.90;;;19.20;99.90;;;;;;5063965;28;20233;-74
2022/06/30 01:31:55;;;;;;;3.22;1.90;;;19.20;99.90;;;;;;5063942;28;20723;-74
2022/06/30 01:34:39;;;;;;;5.38;2.00;;;19.20;99.90;;;;;;5064550;28;20218;-73
2022/06/30 01:37:24;;;;;;;8.40;2.13;;;19.10;99.90;;;;;;5068566;28;20177;-73
2022/06/30 01:40:09;;;;;;;2.60;1.67;;;19.10;99.90;;;;;;5071268;28;20189;-73
2022/06/30 01:42:54;;;;;;;3.88;2.00;;;19.10;99.90;;;;;;5071587;28;20209;-73
2022/06/30 01:45:40;;;;;;;2.95;1.73;;;19.10;99.90;;;;;;5066503;28;20197;-74
2022/06/30 01:48:24;;;;;;;2.50;2.00;;;19.10;99.90;;;;;;5066871;28;20187;-74
2022/06/30 01:51:09;;;;;;;2.95;1.80;;;19.00;99.90;;;;;;5069696;28;20194;-73
2022/06/30 01:53:53;;;;;;;1.92;1.70;;;19.00;99.90;;;;;;5066679;28;20218;-73
2022/06/30 01:56:38;;;;;;;5.30;1.80;;;19.00;99.90;;;;;;5066414;28;20202;-74
2022/06/30 01:59:22;;;;;;;2.60;1.83;;;18.90;99.90;;;;;;5082025;28;20189;-74
2022/06/30 02:02:06;;;;;;;3.00;2.00;;;18.90;99.90;;;;;;5072248;28;20214;-73
2022/06/30 02:04:52;;;;;;;3.03;2.03;;;18.90;99.90;;;;;;5069801;28;20374;-73
2022/06/30 02:07:37;;;;;;;2.38;1.52;;;18.90;99.90;;;;;;5071985;28;20190;-72
2022/06/30 02:10:24;;;;;;;2.10;1.90;;;18.80;99.90;;;;;;5063628;28;20190;-73
2022/06/30 02:13:08;;;;;;;2.35;1.70;;;18.80;99.90;;;;;;5062848;28;20213;-72
2022/06/30 02:15:53;;;;;;;2.72;2.10;;;18.70;99.90;;;;;;5062831;28;20216;-73
2022/06/30 02:18:37;;;;;;;3.80;2.00;;;18.70;99.90;;;;;;5067998;28;20234;-73
2022/06/30 02:21:21;;;;;;;2.23;1.70;;;18.70;99.90;;;;;;5067606;28;20189;-73
2022/06/30 02:24:05;;;;;;;2.07;1.87;;;18.70;99.90;;;;;;5070046;28;20217;-74
2022/06/30 02:26:50;;;;;;;5.13;1.92;;;18.60;99.90;;;;;;5069352;28;20174;-74
2022/06/30 02:29:34;;;;;;;2.97;1.80;;;18.60;99.90;;;;;;5071208;28;20201;-75
2022/06/30 02:32:22;;;;;;;2.88;1.98;;;18.60;99.90;;;;;;5066039;28;20214;-73
2022/06/30 02:35:07;;;;;;;3.83;2.00;;;18.60;99.90;;;;;;5063573;28;20658;-73
2022/06/30 02:37:51;;;;;;;2.63;1.83;;;18.60;99.90;;;;;;5066599;28;20668;-75
2022/06/30 02:40:36;;;;;;;2.17;2.00;;;18.60;99.90;;;;;;5070052;28;20266;-74
2022/06/30 02:43:20;;;;;;;2.80;2.08;;;18.50;99.90;;;;;;5062371;28;20348;-74
2022/06/30 02:46:04;;;;;;;5.05;2.03;;;18.50;99.90;;;;;;5070405;28;20186;-75
2022/06/30 02:48:49;;;;;;;6.93;2.25;;;18.50;99.90;;;;;;5066681;28;20225;-74
2022/06/30 02:51:33;;;;;;;2.10;1.90;;;18.50;99.90;;;;;;5066491;28;20217;-74
2022/06/30 02:54:17;;;;;;;3.20;2.07;;;18.40;99.90;;;;;;5061925;28;20361;-73
2022/06/30 02:57:02;;;;;;;2.33;1.90;;;18.40;99.90;;;;;;5062791;28;20194;-72
2022/06/30 02:59:46;;;;;;;4.63;1.93;;;18.40;99.90;;;;;;5068847;28;20246;-74
2022/06/30 03:02:30;;;;;;;5.70;2.10;;;18.40;99.90;;;;;;5068892;28;20201;-73
2022/06/30 03:05:14;;;;;;;2.05;1.85;;;18.30;99.90;;;;;;5067919;28;20198;-75
2022/06/30 03:07:58;;;;;;;2.65;2.13;;;18.30;99.90;;;;;;5067243;28;20186;-75
2022/06/30 03:10:43;;;;;;;2.47;2.00;;;18.30;99.90;;;;;;5066307;28;20190;-72
2022/06/30 03:13:27;;;;;;;2.37;2.00;;;18.30;99.90;;;;;;5066747;28;20304;-73
2022/06/30 03:16:12;;;;;;;3.73;2.17;;;18.20;99.90;;;;;;5067721;28;20186;-73
2022/06/30 03:18:56;;;;;;;4.07;2.20;;;18.20;99.90;;;;;;5065128;28;20183;-73
2022/06/30 03:21:40;;;;;;;3.80;2.47;;;18.20;99.90;;;;;;5071086;28;20197;-74
2022/06/30 03:24:24;;;;;;;3.23;2.30;;;18.20;99.90;;;;;;5068634;28;20214;-75
2022/06/30 03:27:08;;;;;;;2.70;2.50;;;18.10;99.90;;;;;;5066198;28;20217;-74
2022/06/30 03:29:52;;;;;;;3.87;2.37;;;18.10;99.90;;;;;;5066967;28;20259;-73
2022/06/30 03:32:37;;;;;;;4.00;2.50;;;18.10;99.90;;;;;;5066161;28;20222;-75
2022/06/30 03:35:21;;;;;;;3.13;2.03;;;18.10;99.90;;;;;;5069041;28;20182;-73
2022/06/30 03:38:06;;;;;;;4.60;2.67;;;18.00;99.90;;;;;;5057022;28;20290;-74
2022/06/30 03:40:50;;;;;;;2.50;2.30;;;18.00;99.90;;;;;;5070303;28;20223;-73
2022/06/30 03:43:34;;;;;;;3.33;2.40;;;18.00;99.90;;;;;;5067281;28;20253;-73
2022/06/30 03:46:18;;;;;;;2.70;2.27;;;18.00;99.90;;;;;;5064758;28;20209;-70
2022/06/30 03:49:02;;;;;;;3.57;2.50;;;18.00;99.90;;;;;;5063849;28;20236;-71
2022/06/30 03:51:46;;;;;;;2.30;2.20;;;18.00;99.90;;;;;;5065335;28;20282;-71
2022/06/30 03:54:30;;;;;;;5.13;2.50;;;18.00;99.90;;;;;;5066205;28;20598;-71
2022/06/30 03:57:15;;;;;;;4.43;2.70;;;17.90;99.90;;;;;;5066157;28;20186;-71
2022/06/30 03:59:59;;;;;;;3.57;2.40;;;17.90;99.90;;;;;;5067216;28;20313;-70
2022/06/30 04:02:43;;;;;;;3.90;2.60;;;18.00;99.90;;;;;;5065653;28;20209;-70
2022/06/30 04:05:28;;;;;;;6.73;2.67;;;18.00;99.90;;;;;;5065030;28;20181;-70
2022/06/30 04:08:12;;;;;;;6.40;2.07;;;17.90;99.90;;;;;;5062510;28;20236;-70
2022/06/30 04:10:56;;;;;;;2.67;2.30;;;17.90;99.90;;;;;;5063256;28;20206;-70
2022/06/30 04:13:40;;;;;;;6.37;2.40;;;17.90;99.90;;;;;;5064552;28;20201;-71
2022/06/30 04:16:24;;;;;;;4.50;2.60;;;17.90;99.90;;;;;;5075454;28;20621;-71
2022/06/30 04:19:08;;;;;;;4.90;2.37;;;17.90;99.90;;;;;;5063479;28;20221;-71
2022/06/30 04:21:52;;;;;;;2.73;2.53;;;17.90;99.90;;;;;;5065937;28;20193;-70
2022/06/30 04:24:37;;;;;;;3.87;2.63;;;18.00;99.90;;;;;;5066215;28;20221;-71
2022/06/30 04:27:21;;;;;;;6.03;2.70;;;17.90;99.90;;;;;;5064960;28;20285;-71
2022/06/30 04:30:06;;;;;;;7.43;2.60;;;18.00;99.90;;;;;;5063173;28;20251;-70
2022/06/30 04:32:50;;;;;;;4.53;2.20;;;17.90;99.90;;;;;;5063608;28;20210;-70
2022/06/30 04:35:35;;;;;;;3.77;2.37;;;18.00;99.90;;;;;;5064248;28;20186;-71
2022/06/30 04:38:19;;;;;;;3.97;2.50;;;18.00;99.90;;;;;;5068069;28;20198;-70
2022/06/30 04:41:24;;;;;;;3.47;2.40;;;18.00;99.90;;;;;;5078294;28;20186;-71
2022/06/30 04:44:08;;;;;;;3.27;2.37;;;18.00;99.90;;;;;;5064882;28;20236;-71
2022/06/30 04:46:52;;;;;;;3.47;2.47;;;18.00;99.90;;;;;;5081434;28;20204;-71
2022/06/30 04:49:36;;;;;;;3.00;2.63;;;18.10;99.90;;;;;;5079878;28;20220;-71
2022/06/30 04:52:20;;;;;;;4.87;2.40;;;18.10;99.90;;;;;;5059233;28;20211;-71
2022/06/30 04:55:05;;;;;;;2.83;2.20;;;18.10;99.90;;;;;;5075628;28;20233;-71
2022/06/30 04:57:49;;;;;;;3.10;2.40;;;18.30;99.90;;;;;;5065476;28;20185;-71
2022/06/30 05:00:33;;;;;;;6.13;2.60;;;18.30;99.90;;;;;;5063771;28;20324;-71
2022/06/30 05:03:18;;;;;;;3.80;2.47;;;18.30;99.90;;;;;;5062226;28;20229;-71
2022/06/30 05:06:03;;;;;;;5.93;2.50;;;18.30;99.90;;;;;;5069031;28;20207;-70
2022/06/30 05:08:48;;;;;;;3.03;2.10;;;18.30;99.90;;;;;;5067304;28;20244;-71
2022/06/30 05:11:33;;;;;;;4.20;2.37;;;18.40;99.90;;;;;;5065131;28;20193;-74
2022/06/30 05:14:16;;;;;;;2.63;2.33;;;18.50;99.90;;;;;;5062086;28;20212;-74
2022/06/30 05:17:00;;;;;;;3.93;2.20;;;18.50;99.90;;;;;;5067168;28;20206;-74
2022/06/30 05:19:44;;;;;;;3.40;2.50;;;18.50;99.90;;;;;;5068080;28;20178;-73
2022/06/30 05:22:29;;;;;;;3.17;2.87;;;18.60;99.90;;;;;;5061218;28;20218;-73
2022/06/30 05:28:17;;;;;;;4.13;2.27;;;18.70;99.90;;;;;;5066912;28;20181;-72
2022/06/30 05:31:02;;;;;;;6.40;3.17;;;18.80;99.90;;;;;;5077795;28;20273;-73
2022/06/30 05:33:46;;;;;;;4.10;2.73;;;18.80;99.90;;;;;;5057816;28;20209;-74
2022/06/30 05:36:30;;;;;;;3.77;2.57;;;18.80;99.90;;;;;;5064855;28;20711;-73
2022/06/30 05:39:14;;;;;;;7.57;2.63;;;18.90;99.90;;;;;;5061040;28;20190;-73
2022/06/30 05:42:00;;;;;;;4.50;2.57;;;18.90;99.90;;;;;;5066895;28;20245;-73
2022/06/30 05:44:45;;;;;;;3.57;2.50;;;18.90;99.90;;;;;;5057353;28;20206;-72
2022/06/30 05:47:30;;;;;;;3.53;2.30;;;18.90;99.90;;;;;;5064140;28;20268;-73
2022/06/30 05:50:14;;;;;;;3.50;2.38;;;18.90;99.90;;;;;;5063742;28;20247;-72
2022/06/30 05:52:59;;;;;;;7.55;2.75;;;19.00;99.90;;;;;;5061285;28;20240;-72
2022/06/30 05:55:43;;;;;;;5.13;2.47;;;19.10;99.90;;;;;;5064990;28;20230;-72
2022/06/30 05:58:27;;;;;;;2.53;2.33;;;19.10;99.90;;;;;;5065786;28;20190;-73
2022/06/30 06:01:11;;;;;;;6.97;2.78;;;19.20;99.90;;;;;;5068214;28;20194;-72
2022/06/30 06:03:55;;;;;;;5.43;3.08;;;19.20;99.90;;;;;;5066192;28;20218;-72
2022/06/30 06:06:39;;;;;;;4.05;2.65;;;19.30;99.90;;;;;;5069382;28;20194;-73
2022/06/30 06:09:23;;;;;;;3.42;2.75;;;19.30;99.90;;;;;;5068634;28;20220;-73
2022/06/30 06:12:08;;;;;;;3.72;2.83;;;19.40;99.90;;;;;;5064898;28;20244;-74
2022/06/30 06:14:52;;;;;;;6.00;2.85;;;19.50;99.90;;;;;;5059091;28;20195;-72
2022/06/30 06:17:44;;;;;;;3.47;2.50;;;19.50;99.90;;;;;;5062362;28;20190;-72
2022/06/30 06:20:29;;;;;;;4.60;2.72;;;19.60;99.90;;;;;;5063127;28;20244;-72
2022/06/30 06:23:13;;;;;;;5.65;2.65;;;19.60;99.90;;;;;;5058896;28;20268;-73
2022/06/30 06:25:57;;;;;;;5.13;2.60;;;19.60;99.90;;;;;;5081825;28;20252;-72
2022/06/30 06:31:44;;;;;;;4.95;2.90;;;19.70;99.90;;;;;;5066139;28;20213;-73
2022/06/30 06:34:28;;;;;;;4.40;2.53;;;19.80;99.90;;;;;;5071718;28;20213;-73
2022/06/30 06:37:12;;;;;;;5.90;2.75;;;19.80;99.90;;;;;;5070716;28;20671;-72
2022/06/30 06:39:57;;;;;;;6.05;3.00;;;19.90;99.90;;;;;;5065984;28;20238;-73
2022/06/30 06:42:41;;;;;;;3.13;2.80;;;20.00;99.90;;;;;;5060756;28;20225;-72
2022/06/30 06:45:25;;;;;;;5.70;2.40;;;20.10;99.90;;;;;;5060278;28;20233;-72
2022/06/30 06:48:09;;;;;;;3.20;2.55;;;20.20;99.90;;;;;;5060019;28;20253;-72
2022/06/30 06:50:53;;;;;;;4.38;2.70;;;20.40;99.90;;;;;;5060739;28;20188;-72
2022/06/30 06:53:37;;;;;;;4.05;3.05;;;20.50;99.90;;;;;;5058179;28;20287;-74
2022/06/30 06:56:22;;;;;;;4.38;2.60;;;20.60;99.90;;;;;;5056825;28;20209;-72
2022/06/30 06:59:06;;;;;;;10.52;2.47;;;20.80;99.90;;;;;;5057937;28;20221;-73
2022/06/30 07:01:50;;;;;;;6.72;2.88;;;20.90;99.90;;;;;;5056744;28;20190;-72
2022/06/30 07:04:35;;;;;;;3.30;2.78;;;21.00;99.90;;;;;;5055296;28;20763;-73
2022/06/30 07:07:19;;;;;;;4.18;3.03;;;21.10;99.90;;;;;;5059137;28;20242;-74
2022/06/30 07:10:05;;;;;;;6.03;2.53;;;21.20;99.90;;;;;;5059680;28;20178;-73
2022/06/30 07:12:50;;;;;;;4.00;2.60;;;21.30;99.90;;;;;;5067622;28;20375;-73
2022/06/30 07:15:34;;;;;;;5.78;2.92;;;21.40;99.90;;;;;;5068878;28;20186;-73
2022/06/30 07:18:18;;;;;;;4.25;3.17;;;21.50;99.90;;;;;;5064236;28;20194;-73
2022/06/30 07:21:03;;;;;;;3.67;3.03;;;21.60;99.90;;;;;;5064315;28;20250;-74
2022/06/30 07:23:47;;;;;;;4.90;3.50;;;21.70;99.90;;;;;;5062815;28;20222;-73
2022/06/30 07:26:31;;;;;;;4.45;3.63;;;21.90;99.90;;;;;;5060658;28;20213;-74
2022/06/30 07:29:16;;;;;;;4.13;3.72;;;21.90;99.90;;;;;;5061330;28;20186;-73
2022/06/30 07:32:00;;;;;;;4.80;3.97;;;22.10;99.90;;;;;;5056166;28;20213;-74
2022/06/30 07:34:44;;;;;;;7.30;3.70;;;22.10;99.90;;;;;;5061074;28;20245;-73
2022/06/30 07:37:28;;;;;;;4.32;3.72;;;22.30;99.90;;;;;;5061392;28;20665;-73
2022/06/30 07:40:14;;;;;;;4.28;3.65;;;22.40;99.90;;;;;;5057675;28;20190;-73
2022/06/30 07:42:58;;;;;;;7.25;4.40;;;22.50;99.90;;;;;;5056497;28;20244;-73
2022/06/30 07:45:42;;;;;;;7.47;4.10;;;22.60;99.90;;;;;;5057463;28;20212;-73
2022/06/30 07:48:26;;;;;;;8.20;4.43;;;22.70;99.90;;;;;;5059798;28;20249;-73
2022/06/30 07:51:10;;;;;;;7.47;4.53;;;22.80;99.90;;;;;;5059497;28;20234;-72
2022/06/30 07:53:55;;;;;;;5.95;4.40;;;22.90;99.90;;;;;;5056900;28;20234;-73
2022/06/30 07:56:39;;;;;;;7.05;4.88;;;22.90;99.90;;;;;;5061874;28;20210;-73
2022/06/30 07:59:23;;;;;;;7.82;4.55;;;23.00;99.90;;;;;;5060302;28;20584;-73
2022/06/30 08:02:07;;;;;;;6.20;5.25;;;23.10;99.90;;;;;;5086459;28;20197;-73
2022/06/30 08:04:51;;;;;;;6.53;5.57;;;23.30;99.90;;;;;;5058806;28;20229;-73
2022/06/30 08:07:37;;;;;;;8.80;5.47;;;23.40;99.90;;;;;;5056693;28;20264;-73
2022/06/30 08:10:21;;;;;;;7.00;5.80;;;23.40;99.90;;;;;;5058129;28;20285;-73
2022/06/30 08:13:05;;;;;;;8.52;5.65;;;23.50;99.90;;;;;;5062668;28;20221;-73
2022/06/30 08:15:49;;;;;;;6.10;5.50;;;23.70;99.90;;;;;;5056110;28;20260;-73
2022/06/30 08:18:33;;;;;;;6.25;5.65;;;23.80;99.90;;;;;;5059131;28;20260;-73
2022/06/30 08:21:17;;;;;;;6.35;5.70;;;23.90;99.90;;;;;;5059441;28;20209;-73
2022/06/30 08:24:02;;;;;;;7.32;6.63;;;24.00;99.90;;;;;;5056981;28;20266;-73
2022/06/30 08:26:47;;;;;;;7.55;6.80;;;24.10;99.90;;;;;;5051812;28;20190;-73
2022/06/30 08:29:32;;;;;;;10.43;6.70;;;24.10;99.90;;;;;;5056390;28;20213;-73
2022/06/30 08:32:16;;;;;;;7.80;6.60;;;24.10;99.90;;;;;;5054957;28;20194;-73
2022/06/30 08:35:00;;;;;;;8.27;7.05;;;24.20;99.90;;;;;;5058286;28;20190;-72
2022/06/30 08:37:44;;;;;;;7.82;7.07;;;24.30;99.90;;;;;;5055893;28;20223;-73
2022/06/30 08:43:32;;;;;;;7.53;6.60;;;24.40;99.90;;;;;;5060830;28;20305;-73
2022/06/30 08:46:19;;;;;;;8.82;7.50;;;24.50;99.90;;;;;;5057541;28;20217;-73
2022/06/30 08:49:04;;;;;;;9.98;7.68;;;24.60;99.90;;;;;;5054347;28;20260;-73
2022/06/30 08:51:51;;;;;;;7.88;7.07;;;24.60;99.90;;;;;;5058739;28;20423;-73
2022/06/30 08:54:38;;;;;;;8.75;7.10;;;24.70;99.90;;;;;;5056483;28;20225;-74
2022/06/30 08:57:23;;;;;;;7.72;6.93;;;24.80;99.90;;;;;;5051681;28;20197;-73
2022/06/30 09:00:08;;;;;;;11.57;7.43;;;24.80;99.90;;;;;;5074136;28;20218;-73
2022/06/30 09:02:52;;;;;;;8.43;7.50;;;24.90;99.90;;;;;;5052852;28;20217;-74
2022/06/30 09:05:38;;;;;;;9.00;7.47;;;24.90;99.90;;;;;;5057357;28;20736;-74
2022/06/30 09:08:23;;;;;;;9.00;8.05;;;24.90;99.90;;;;;;5056746;28;20178;-74
2022/06/30 09:11:07;;;;;;;8.65;7.75;;;25.00;99.90;;;;;;5054344;28;20244;-74
2022/06/30 09:13:52;;;;;;;9.82;7.32;;;25.00;99.90;;;;;;5058757;28;20216;-73
2022/06/30 09:16:50;;;;;;;8.68;7.88;;;25.10;99.90;;;;;;5054363;28;20206;-75
2022/06/30 09:19:40;;;;;;;8.88;7.25;;;25.10;99.90;;;;;;5058550;28;20347;-74
2022/06/30 09:22:34;;;;;;;8.88;7.95;;;25.20;99.90;;;;;;5056931;28;20186;-75
2022/06/30 09:25:23;;;;;;;9.00;8.07;;;25.40;99.90;;;;;;5043943;28;20237;-74
2022/06/30 09:28:07;;;;;;;9.00;8.10;;;25.40;99.90;;;;;;5054832;28;20194;-74
2022/06/30 09:30:56;;;;;;;10.88;9.63;;;25.40;99.90;;;;;;5058657;28;20190;-74
2022/06/30 09:33:45;;;;;;;9.43;8.45;;;25.50;99.90;;;;;;5057282;28;20237;-74
2022/06/30 09:36:29;;;;;;;11.32;8.75;;;25.50;99.90;;;;;;5059790;28;20681;-74
2022/06/30 09:39:15;;;;;;;11.23;9.32;;;25.60;99.90;;;;;;5058820;28;20202;-76
2022/06/30 09:41:59;;;;;;;9.50;8.60;;;25.60;99.90;;;;;;5052350;28;20190;-74
2022/06/30 09:44:48;;;;;;;11.10;8.90;;;25.70;99.90;;;;;;5056281;28;20791;-74
2022/06/30 09:47:33;;;;;;;9.18;8.38;;;25.80;99.90;;;;;;5055800;28;20186;-75
2022/06/30 09:50:18;;;;;;;11.80;8.45;;;25.80;99.90;;;;;;5052788;28;20229;-74
2022/06/30 09:53:20;;;;;;;11.63;8.98;;;25.80;99.90;;;;;;5057415;28;20264;-74
2022/06/30 09:56:12;;;;;;;12.70;10.18;;;25.90;99.90;;;;;;5075530;28;20593;-75
2022/06/30 09:58:56;;;;;;;11.13;9.02;;;25.90;99.90;;;;;;5061379;28;20190;-75
2022/06/30 10:01:54;;;;;;;11.05;8.40;;;25.80;99.90;;;;;;5056417;28;20205;-75
2022/06/30 10:04:53;;;;;;;10.30;8.60;;;25.90;99.90;;;;;;5062122;28;20307;-75
2022/06/30 10:07:38;;;;;;;11.55;8.80;;;26.00;99.90;;;;;;5057845;28;20225;-75
2022/06/30 10:10:24;;;;;;;9.20;7.47;;;26.00;99.90;;;;;;5061988;28;20716;-74
2022/06/30 10:13:16;;;;;;;8.80;7.90;;;26.20;99.90;;;;;;5061140;28;20221;-75
2022/06/30 10:16:02;;;;;;;11.13;9.02;;;26.20;99.90;;;;;;5060583;28;20194;-75
2022/06/30 10:18:48;;;;;;;10.15;9.05;;;26.30;99.90;;;;;;5061094;28;20723;-75
2022/06/30 10:21:33;;;;;;;10.98;9.23;;;26.30;99.90;;;;;;5062357;28;20256;-75
2022/06/30 10:24:19;;;;;;;10.38;9.18;;;26.40;99.90;;;;;;5056179;28;20316;-75
2022/06/30 10:27:13;;;;;;;10.32;9.32;;;26.40;99.90;;;;;;5059740;28;20222;-75
2022/06/30 10:30:00;;;;;;;10.05;8.98;;;26.40;99.90;;;;;;5063446;28;20676;-75
2022/06/30 10:33:06;;;;;;;13.77;8.98;;;26.40;99.90;;;;;;5061527;28;20335;-75
2022/06/30 10:36:07;;;;;;;8.63;7.63;;;26.50;99.90;;;;;;5066771;28;20198;-75
2022/06/30 10:39:18;;;;;;;8.77;7.35;;;26.50;99.90;;;;;;5062720;28;20595;-75
2022/06/30 10:42:02;;;;;;;8.60;6.85;;;26.50;99.90;;;;;;5063734;28;20254;-75
2022/06/30 10:44:49;;;;;;;7.63;6.82;;;26.60;99.90;;;;;;5065574;28;20217;-75
2022/06/30 10:47:54;;;;;;;8.27;7.28;;;26.80;99.90;;;;;;5064788;28;20226;-75
2022/06/30 10:50:41;;;;;;;8.32;7.07;;;27.00;99.90;;;;;;5059984;28;20181;-75
2022/06/30 10:53:38;;;;;;;9.52;8.35;;;27.00;99.90;;;;;;5065816;28;20268;-75
2022/06/30 10:56:26;;;;;;;8.90;7.63;;;27.00;99.90;;;;;;5086577;28;20344;-75
2022/06/30 10:59:13;;;;;;;8.30;7.40;;;27.00;99.90;;;;;;5059598;28;20186;-74
2022/06/30 11:02:15;;;;;;;9.63;8.05;;;27.10;99.90;;;;;;5077067;28;20268;-74
2022/06/30 11:05:23;;;;;;;9.25;8.00;;;27.10;99.90;;;;;;5057446;28;20363;-75
2022/06/30 11:08:36;;;;;;;10.32;8.23;;;27.20;99.90;;;;;;5062616;28;20186;-74
2022/06/30 11:11:20;;;;;;;9.60;8.60;;;27.30;99.90;;;;;;5064468;28;20189;-75
2022/06/30 11:14:07;;;;;;;8.40;7.53;;;27.30;99.90;;;;;;5059714;28;21065;-74
2022/06/30 11:16:51;;;;;;;14.50;7.68;;;27.40;99.90;;;;;;5061105;28;20259;-74
2022/06/30 11:19:35;;;;;;;7.30;6.60;;;27.30;99.90;;;;;;5059356;28;20252;-74
2022/06/30 11:22:20;;;;;;;9.13;7.57;;;27.40;99.90;;;;;;5078476;28;20276;-75
2022/06/30 11:25:06;;;;;;;8.70;7.80;;;27.40;99.90;;;;;;5059578;28;20353;-75
2022/06/30 11:27:50;;;;;;;9.82;7.13;;;27.40;99.90;;;;;;5058659;28;20190;-74
2022/06/30 11:30:35;;;;;;;8.13;7.35;;;27.40;99.90;;;;;;5064859;28;20193;-74
2022/06/30 11:33:19;;;;;;;7.72;6.88;;;27.40;99.90;;;;;;5061599;28;20283;-75
2022/06/30 11:36:05;;;;;;;8.60;7.70;;;27.50;99.90;;;;;;5056697;28;20194;-74
2022/06/30 11:39:28;;;;;;;8.55;7.28;;;27.50;99.90;;;;;;5064726;28;20198;-75
2022/06/30 11:42:12;;;;;;;9.25;7.53;;;27.50;99.90;;;;;;5026867;28;20190;-75
2022/06/30 11:44:57;;;;;;;9.52;7.53;;;27.50;99.90;;;;;;5040427;28;20225;-75
2022/06/30 11:47:42;;;;;;;7.95;7.15;;;27.50;99.90;;;;;;5068306;28;20286;-75
2022/06/30 11:50:26;;;;;;;7.03;6.30;;;27.50;99.90;;;;;;5060295;28;20402;-75
2022/06/30 11:53:11;;;;;;;7.82;6.70;;;27.60;99.90;;;;;;5058401;28;20253;-75
2022/06/30 11:55:55;;;;;;;7.50;6.80;;;27.70;99.90;;;;;;5061318;28;20201;-75
2022/06/30 11:58:39;;;;;;;9.93;7.00;;;27.60;99.90;;;;;;5059686;28;20189;-75
2022/06/30 12:01:24;;;;;;;8.43;6.50;;;27.60;99.90;;;;;;5064761;28;20202;-75
2022/06/30 12:04:15;;;;;;;7.50;6.63;;;27.50;99.90;;;;;;5075358;28;20226;-75
2022/06/30 12:07:03;;;;;;;6.97;6.38;;;27.50;99.90;;;;;;5059486;28;20237;-75
2022/06/30 12:09:49;;;;;;;8.23;6.78;;;27.50;99.90;;;;;;5062483;28;20218;-76
2022/06/30 12:12:35;;;;;;;6.68;5.95;;;27.50;99.90;;;;;;5059363;28;20186;-75
2022/06/30 12:15:20;;;;;;;8.63;6.57;;;27.60;99.90;;;;;;5056424;28;20197;-76
2022/06/30 12:18:05;;;;;;;6.78;5.90;;;27.70;99.90;;;;;;5059483;28;20204;-76
2022/06/30 12:20:52;;;;;;;10.82;6.78;;;27.80;99.90;;;;;;5060552;28;20234;-76
2022/06/30 12:23:39;;;;;;;6.65;6.05;;;27.90;99.90;;;;;;5057383;28;20226;-77
2022/06/30 12:26:24;;;;;;;7.07;6.07;;;27.90;99.90;;;;;;5086719;28;20189;-76
2022/06/30 12:29:12;;;;;;;6.40;5.82;;;27.80;99.90;;;;;;5061412;28;20193;-75
2022/06/30 12:32:05;;;;;;;7.20;6.40;;;27.80;99.90;;;;;;5064988;28;20213;-75
2022/06/30 12:34:52;;;;;;;6.22;5.38;;;27.80;99.90;;;;;;5059843;28;20197;-75
2022/06/30 12:37:38;;;;;;;6.75;5.38;;;27.70;99.90;;;;;;5059272;28;20202;-75
2022/06/30 12:40:28;;;;;;;7.10;6.40;;;27.70;99.90;;;;;;5055934;28;20236;-75
2022/06/30 12:43:13;;;;;;;7.57;5.82;;;27.70;99.90;;;;;;5058038;28;20249;-75
2022/06/30 12:46:00;;;;;;;5.97;5.38;;;27.80;99.90;;;;;;5061227;28;20190;-76
2022/06/30 12:48:53;;;;;;;6.85;5.20;;;27.80;99.90;;;;;;5054118;28;20223;-76
2022/06/30 12:51:41;;;;;;;5.60;5.10;;;28.00;99.90;;;;;;5060708;28;20202;-76
2022/06/30 12:54:27;;;;;;;8.75;5.78;;;28.10;99.90;;;;;;5055167;28;20229;-75
2022/06/30 12:57:15;;;;;;;7.05;6.35;;;28.10;99.90;;;;;;5055919;28;20210;-76
2022/06/30 13:00:00;;;;;;;6.15;5.63;;;28.20;99.90;;;;;;5056671;28;20205;-75
2022/06/30 13:02:45;;;;;;;5.68;5.18;;;28.30;99.90;;;;;;5058167;28;20274;-75
2022/06/30 13:05:32;;;;;;;5.47;4.97;;;28.30;99.90;;;;;;5058024;28;20268;-75
2022/06/30 13:08:19;;;;;;;6.47;4.78;;;28.30;99.90;;;;;;5058661;28;20289;-76
2022/06/30 13:11:07;;;;;;;5.63;5.07;;;28.30;99.90;;;;;;5057154;28;20648;-76
2022/06/30 13:13:53;;;;;;;6.22;5.13;;;28.40;99.90;;;;;;5059256;28;20213;-75
2022/06/30 13:16:37;;;;;;;7.70;5.38;;;28.60;99.90;;;;;;5055742;28;20267;-76
2022/06/30 13:19:22;;;;;;;5.22;4.72;;;28.70;99.90;;;;;;5058598;28;20669;-75
2022/06/30 13:22:06;;;;;;;6.75;4.72;;;28.70;99.90;;;;;;5058724;28;20198;-75
2022/06/30 13:24:51;;;;;;;5.15;4.65;;;28.70;99.90;;;;;;5052155;28;20210;-76
2022/06/30 13:27:35;;;;;;;5.82;4.85;;;28.80;99.90;;;;;;5055226;28;20248;-76
2022/06/30 13:30:19;;;;;;;5.20;4.70;;;28.90;99.90;;;;;;5057019;28;20226;-76
2022/06/30 13:33:03;;;;;;;5.40;4.90;;;28.90;99.90;;;;;;5058304;28;20268;-76
2022/06/30 13:35:47;;;;;;;5.95;5.30;;;28.90;99.90;;;;;;5057699;28;20198;-76
2022/06/30 13:38:31;;;;;;;5.88;5.30;;;28.90;99.90;;;;;;5055217;28;20329;-76
2022/06/30 13:41:16;;;;;;;7.30;5.50;;;28.90;99.90;;;;;;5057943;28;20194;-76
2022/06/30 13:44:06;;;;;;;5.75;5.15;;;28.90;99.90;;;;;;5054901;28;20284;-76
2022/06/30 13:46:50;;;;;;;6.07;5.47;;;28.90;99.90;;;;;;5055336;28;20224;-76
2022/06/30 13:49:35;;;;;;;6.88;4.85;;;29.00;99.90;;;;;;5056280;28;20191;-76
2022/06/30 13:52:20;;;;;;;6.65;4.93;;;29.10;99.90;;;;;;5060330;28;20262;-76
2022/06/30 13:55:04;;;;;;;8.93;4.97;;;29.00;99.90;;;;;;5053316;28;20253;-76
2022/06/30 13:57:49;;;;;;;5.78;4.25;;;29.00;99.90;;;;;;5056472;28;20273;-76
2022/06/30 14:00:34;;;;;;;5.63;4.75;;;29.10;99.90;;;;;;5059336;28;20243;-76
2022/06/30 14:03:19;;;;;;;5.70;5.05;;;29.20;99.90;;;;;;5062511;28;20350;-77
2022/06/30 14:06:04;;;;;;;5.75;4.50;;;29.30;99.90;;;;;;5061994;28;20197;-76
2022/06/30 14:08:48;;;;;;;6.97;5.03;;;29.40;99.90;;;;;;5063429;28;20255;-77
2022/06/30 14:11:33;;;;;;;6.93;4.55;;;29.50;99.90;;;;;;5062911;28;20198;-75
2022/06/30 14:14:18;;;;;;;11.18;4.55;;;29.60;99.90;;;;;;5059554;28;20259;-76
2022/06/30 14:17:03;;;;;;;6.80;4.78;;;29.60;99.90;;;;;;5062548;28;20669;-76
2022/06/30 14:19:48;;;;;;;4.45;4.05;;;29.60;99.90;;;;;;5061651;28;20264;-76
2022/06/30 14:22:34;;;;;;;5.15;4.70;;;29.60;99.90;;;;;;5056949;28;20214;-76
2022/06/30 14:25:19;;;;;;;4.80;4.07;;;29.60;99.90;;;;;;5055066;28;20214;-81
2022/06/30 14:28:04;;;;;;;4.35;3.95;;;29.50;99.90;;;;;;5056914;28;20245;-75
2022/06/30 14:30:49;;;;;;;4.43;4.03;;;29.60;99.90;;;;;;5058881;28;20548;-76
2022/06/30 14:33:33;;;;;;;5.93;4.10;;;29.70;99.90;;;;;;5054653;28;20215;-76